Franklin, KY

12:31 AM CST on February 28, 2015 (GMT -0600)
CnTAstro | Change Station
CLOSE
Current Station
Personal Weather Station
Location: Portland, TN
Elevation: 814 ft
Nearby Weather Stations

Elev 814 ft 36.61 °N, 86.45 °W | Updated 46 seconds ago

Overcast
Overcast
21.7 °F
Feels Like 15 °F
N
5.0
Wind Variable Wind from East
Gusts 5.0 mph

Today
High -- | Low -- °F
--% Chance of Precip.
Yesterday
High -- | Low -- °F
Precip. -- in
6:18 AM 5:39 PM
Waxing Gibbous, 75% visible
Pressure 30.64 in
Visibility 10.0 miles
Clouds Overcast 8500 ft
Windchill 15 °F
Dew Point 10 °F
Humidity 60%
Rainfall 0.00 in
Snow Depth Not available.
UV 0 out of 12
Pollen .90 out of 12
Air Quality Not available.
Flu Activity Not available.
METAR KBWG 280553Z AUTO 06008KT 10SM OVC085 M05/M13 A3062 RMK AO2 SLP374 T10501133 11033 21050 410171072 58005

More Conditions Fewer Conditions

Pressure 30.64 in
Visibility 10.0 miles
Clouds Overcast 8500 ft
Windchill 15 °F
Dew Point 10 °F
Humidity 60%
Rainfall 0.00 in
Snow Depth Not available.
UV 0 out of 12
Pollen .90 out of 12
Air Quality Not available.
Flu Activity Not available.
METAR KBWG 280553Z AUTO 06008KT 10SM OVC085 M05/M13 A3062 RMK AO2 SLP374 T10501133 11033 21050 410171072 58005

More Conditions Fewer Conditions

10-Day Weather Forecast

Almanac

Astronomy

Feb. 28, 2015 Rise Set
Actual Time
Civil Twilight
Nautical Twilight
Astronomical Twilight
Moon
Length of Visible Light
Length of Day
Tomorrow will be .
, % of the Moon is Illuminated

Today's Extremes

State Highs State Lows

Community

WunderPhotos

Upload Photos

1,800,974 photos uploaded!

WunderBlogs® & News

Nearby

Air Quality

  Air Quality AQ Index Pollutant
Not available.

Snow Depth

Station Depth Elevation

Earthquake Activity

City Distance Mag. Time & Date
Minimum magnitude displayed is 2.5.

Coastal Water Temperatures

Place Temperature

Nearby Weather Stations